sensor_id;sensor_type;location;lat;lon;timestamp;P1;durP1;ratioP1;P2;durP2;ratioP2
22606;SDS011;11470;20.968;105.834;2023-04-23T00:02:43;46.03;;;31.85;;
22606;SDS011;11470;20.968;105.834;2023-04-23T00:07:50;57.47;;;33.25;;
22606;SDS011;11470;20.968;105.834;2023-04-23T00:12:57;80.80;;;44.40;;
22606;SDS011;11470;20.968;105.834;2023-04-23T00:18:03;57.65;;;34.63;;
22606;SDS011;11470;20.968;105.834;2023-04-23T00:23:08;73.55;;;44.15;;
22606;SDS011;11470;20.968;105.834;2023-04-23T00:33:21;61.70;;;38.05;;
22606;SDS011;11470;20.968;105.834;2023-04-23T00:38:27;41.15;;;27.63;;
22606;SDS011;11470;20.968;105.834;2023-04-23T00:44:18;43.63;;;28.50;;
22606;SDS011;11470;20.968;105.834;2023-04-23T00:49:07;46.83;;;30.90;;
22606;SDS011;11470;20.968;105.834;2023-04-23T00:54:14;35.70;;;25.55;;
22606;SDS011;11470;20.968;105.834;2023-04-23T01:04:26;36.88;;;25.63;;
22606;SDS011;11470;20.968;105.834;2023-04-23T01:09:35;33.47;;;24.30;;
22606;SDS011;11470;20.968;105.834;2023-04-23T01:14:41;46.05;;;31.00;;
22606;SDS011;11470;20.968;105.834;2023-04-23T01:19:47;57.50;;;33.08;;
22606;SDS011;11470;20.968;105.834;2023-04-23T01:24:55;81.53;;;47.20;;
22606;SDS011;11470;20.968;105.834;2023-04-23T01:30:17;68.45;;;40.67;;
22606;SDS011;11470;20.968;105.834;2023-04-23T01:35:26;82.43;;;49.03;;
22606;SDS011;11470;20.968;105.834;2023-04-23T01:40:34;72.22;;;44.97;;
22606;SDS011;11470;20.968;105.834;2023-04-23T01:45:45;82.20;;;47.90;;
22606;SDS011;11470;20.968;105.834;2023-04-23T01:50:52;82.70;;;49.83;;
22606;SDS011;11470;20.968;105.834;2023-04-23T01:55:59;88.30;;;53.33;;
22606;SDS011;11470;20.968;105.834;2023-04-23T02:01:10;77.55;;;47.25;;
22606;SDS011;11470;20.968;105.834;2023-04-23T02:06:25;75.53;;;46.22;;
22606;SDS011;11470;20.968;105.834;2023-04-23T02:11:33;67.20;;;41.17;;
22606;SDS011;11470;20.968;105.834;2023-04-23T02:16:38;61.47;;;40.22;;
22606;SDS011;11470;20.968;105.834;2023-04-23T02:21:45;62.55;;;37.60;;
22606;SDS011;11470;20.968;105.834;2023-04-23T02:26:50;63.75;;;38.85;;
22606;SDS011;11470;20.968;105.834;2023-04-23T02:31:56;62.92;;;36.58;;
22606;SDS011;11470;20.968;105.834;2023-04-23T02:37:08;73.20;;;40.22;;
22606;SDS011;11470;20.968;105.834;2023-04-23T02:42:14;69.00;;;40.28;;
22606;SDS011;11470;20.968;105.834;2023-04-23T02:47:20;67.30;;;41.03;;
22606;SDS011;11470;20.968;105.834;2023-04-23T03:04:08;63.20;;;39.57;;
22606;SDS011;11470;20.968;105.834;2023-04-23T03:09:18;63.05;;;39.00;;
22606;SDS011;11470;20.968;105.834;2023-04-23T03:14:25;67.20;;;40.83;;
22606;SDS011;11470;20.968;105.834;2023-04-23T03:20:17;65.93;;;41.30;;
22606;SDS011;11470;20.968;105.834;2023-04-23T03:25:24;66.28;;;39.58;;
22606;SDS011;11470;20.968;105.834;2023-04-23T03:36:08;60.45;;;39.45;;
22606;SDS011;11470;20.968;105.834;2023-04-23T03:41:24;59.15;;;36.35;;
22606;SDS011;11470;20.968;105.834;2023-04-23T03:46:36;70.25;;;39.15;;
22606;SDS011;11470;20.968;105.834;2023-04-23T03:58:28;64.22;;;42.58;;
22606;SDS011;11470;20.968;105.834;2023-04-23T04:03:55;79.10;;;45.22;;
22606;SDS011;11470;20.968;105.834;2023-04-23T04:09:41;73.35;;;42.17;;
22606;SDS011;11470;20.968;105.834;2023-04-23T04:14:46;61.20;;;36.13;;
22606;SDS011;11470;20.968;105.834;2023-04-23T04:19:54;76.20;;;44.15;;
22606;SDS011;11470;20.968;105.834;2023-04-23T04:25:00;73.20;;;43.78;;
22606;SDS011;11470;20.968;105.834;2023-04-23T04:30:25;74.22;;;44.53;;
22606;SDS011;11470;20.968;105.834;2023-04-23T04:35:36;66.28;;;41.00;;
22606;SDS011;11470;20.968;105.834;2023-04-23T04:40:59;76.40;;;45.92;;
22606;SDS011;11470;20.968;105.834;2023-04-23T04:46:08;71.00;;;43.00;;
22606;SDS011;11470;20.968;105.834;2023-04-23T04:51:15;69.15;;;43.67;;
22606;SDS011;11470;20.968;105.834;2023-04-23T04:56:27;69.65;;;40.35;;
22606;SDS011;11470;20.968;105.834;2023-04-23T05:01:36;60.58;;;39.33;;
22606;SDS011;11470;20.968;105.834;2023-04-23T05:06:45;35.95;;;24.42;;
22606;SDS011;11470;20.968;105.834;2023-04-23T05:11:51;51.10;;;34.10;;
22606;SDS011;11470;20.968;105.834;2023-04-23T05:22:02;65.13;;;40.53;;
22606;SDS011;11470;20.968;105.834;2023-04-23T05:27:08;56.30;;;35.88;;
22606;SDS011;11470;20.968;105.834;2023-04-23T05:32:17;56.05;;;34.88;;
22606;SDS011;11470;20.968;105.834;2023-04-23T05:37:23;48.72;;;25.88;;
22606;SDS011;11470;20.968;105.834;2023-04-23T05:42:29;69.93;;;40.22;;
22606;SDS011;11470;20.968;105.834;2023-04-23T05:52:40;59.30;;;36.40;;
22606;SDS011;11470;20.968;105.834;2023-04-23T05:57:46;53.22;;;34.22;;
22606;SDS011;11470;20.968;105.834;2023-04-23T06:02:51;60.42;;;36.72;;
22606;SDS011;11470;20.968;105.834;2023-04-23T06:08:20;53.77;;;31.77;;
22606;SDS011;11470;20.968;105.834;2023-04-23T06:13:27;49.78;;;27.13;;
22606;SDS011;11470;20.968;105.834;2023-04-23T06:24:12;49.50;;;31.88;;
22606;SDS011;11470;20.968;105.834;2023-04-23T06:29:18;51.22;;;33.10;;
22606;SDS011;11470;20.968;105.834;2023-04-23T06:34:38;37.20;;;19.60;;
22606;SDS011;11470;20.968;105.834;2023-04-23T06:40:02;54.75;;;33.00;;
22606;SDS011;11470;20.968;105.834;2023-04-23T06:45:08;48.08;;;31.95;;
22606;SDS011;11470;20.968;105.834;2023-04-23T06:50:17;50.55;;;33.58;;
22606;SDS011;11470;20.968;105.834;2023-04-23T06:55:28;42.13;;;24.73;;
22606;SDS011;11470;20.968;105.834;2023-04-23T07:00:44;50.33;;;30.95;;
22606;SDS011;11470;20.968;105.834;2023-04-23T07:05:52;49.80;;;32.92;;
22606;SDS011;11470;20.968;105.834;2023-04-23T07:10:58;51.80;;;31.80;;
22606;SDS011;11470;20.968;105.834;2023-04-23T07:16:05;46.83;;;29.20;;
22606;SDS011;11470;20.968;105.834;2023-04-23T07:21:13;46.00;;;30.38;;
22606;SDS011;11470;20.968;105.834;2023-04-23T07:26:19;47.03;;;32.90;;
22606;SDS011;11470;20.968;105.834;2023-04-23T07:31:25;47.65;;;28.48;;
22606;SDS011;11470;20.968;105.834;2023-04-23T07:36:31;51.75;;;33.38;;
22606;SDS011;11470;20.968;105.834;2023-04-23T07:41:41;51.45;;;33.78;;
22606;SDS011;11470;20.968;105.834;2023-04-23T07:46:47;45.63;;;28.58;;
22606;SDS011;11470;20.968;105.834;2023-04-23T07:51:53;47.42;;;24.20;;
22606;SDS011;11470;20.968;105.834;2023-04-23T08:02:06;45.50;;;31.58;;
22606;SDS011;11470;20.968;105.834;2023-04-23T08:07:12;52.10;;;35.80;;
22606;SDS011;11470;20.968;105.834;2023-04-23T08:12:21;53.10;;;36.05;;
22606;SDS011;11470;20.968;105.834;2023-04-23T08:17:26;47.15;;;32.58;;
22606;SDS011;11470;20.968;105.834;2023-04-23T08:22:42;41.58;;;28.88;;
22606;SDS011;11470;20.968;105.834;2023-04-23T08:27:49;50.63;;;33.63;;
22606;SDS011;11470;20.968;105.834;2023-04-23T08:32:55;55.95;;;35.72;;
22606;SDS011;11470;20.968;105.834;2023-04-23T08:38:01;52.35;;;33.25;;
22606;SDS011;11470;20.968;105.834;2023-04-23T08:43:20;56.20;;;36.25;;
22606;SDS011;11470;20.968;105.834;2023-04-23T08:48:43;54.83;;;36.13;;
22606;SDS011;11470;20.968;105.834;2023-04-23T08:53:50;56.83;;;38.15;;
22606;SDS011;11470;20.968;105.834;2023-04-23T08:59:01;53.47;;;38.00;;
22606;SDS011;11470;20.968;105.834;2023-04-23T09:04:09;62.25;;;37.75;;
22606;SDS011;11470;20.968;105.834;2023-04-23T09:09:19;55.40;;;37.00;;
22606;SDS011;11470;20.968;105.834;2023-04-23T09:14:27;59.00;;;38.60;;
22606;SDS011;11470;20.968;105.834;2023-04-23T09:19:32;54.33;;;38.45;;
22606;SDS011;11470;20.968;105.834;2023-04-23T09:24:41;59.80;;;34.60;;
22606;SDS011;11470;20.968;105.834;2023-04-23T09:29:49;60.28;;;38.70;;
22606;SDS011;11470;20.968;105.834;2023-04-23T09:34:58;51.53;;;33.90;;
22606;SDS011;11470;20.968;105.834;2023-04-23T09:40:21;57.85;;;37.75;;
22606;SDS011;11470;20.968;105.834;2023-04-23T09:45:28;62.10;;;36.92;;
22606;SDS011;11470;20.968;105.834;2023-04-23T09:50:35;51.42;;;36.05;;
22606;SDS011;11470;20.968;105.834;2023-04-23T09:55:42;52.00;;;35.75;;
22606;SDS011;11470;20.968;105.834;2023-04-23T10:00:49;53.22;;;33.08;;
22606;SDS011;11470;20.968;105.834;2023-04-23T10:11:03;60.13;;;37.22;;
22606;SDS011;11470;20.968;105.834;2023-04-23T10:16:22;63.25;;;39.00;;
22606;SDS011;11470;20.968;105.834;2023-04-23T10:21:40;56.15;;;36.00;;
22606;SDS011;11470;20.968;105.834;2023-04-23T10:27:02;61.08;;;37.95;;
22606;SDS011;11470;20.968;105.834;2023-04-23T10:32:41;65.57;;;40.28;;
22606;SDS011;11470;20.968;105.834;2023-04-23T10:37:48;63.38;;;38.83;;
22606;SDS011;11470;20.968;105.834;2023-04-23T10:42:58;55.45;;;36.90;;
22606;SDS011;11470;20.968;105.834;2023-04-23T10:48:04;63.05;;;36.83;;
22606;SDS011;11470;20.968;105.834;2023-04-23T10:53:17;72.13;;;40.13;;
22606;SDS011;11470;20.968;105.834;2023-04-23T10:58:26;67.50;;;41.85;;
22606;SDS011;11470;20.968;105.834;2023-04-23T11:03:54;64.50;;;41.42;;
22606;SDS011;11470;20.968;105.834;2023-04-23T11:09:01;66.25;;;41.92;;
22606;SDS011;11470;20.968;105.834;2023-04-23T11:14:36;73.63;;;44.60;;
22606;SDS011;11470;20.968;105.834;2023-04-23T11:20:03;65.25;;;40.20;;
22606;SDS011;11470;20.968;105.834;2023-04-23T11:25:14;70.60;;;41.03;;
22606;SDS011;11470;20.968;105.834;2023-04-23T11:30:24;61.72;;;41.00;;
22606;SDS011;11470;20.968;105.834;2023-04-23T11:35:34;67.70;;;41.40;;
22606;SDS011;11470;20.968;105.834;2023-04-23T11:40:45;67.65;;;42.08;;
22606;SDS011;11470;20.968;105.834;2023-04-23T11:45:51;62.25;;;37.30;;
22606;SDS011;11470;20.968;105.834;2023-04-23T11:51:02;64.32;;;41.03;;
22606;SDS011;11470;20.968;105.834;2023-04-23T11:56:09;63.35;;;40.03;;
22606;SDS011;11470;20.968;105.834;2023-04-23T12:02:00;63.22;;;38.03;;
22606;SDS011;11470;20.968;105.834;2023-04-23T12:07:06;69.80;;;41.75;;
22606;SDS011;11470;20.968;105.834;2023-04-23T12:12:36;59.25;;;38.95;;
22606;SDS011;11470;20.968;105.834;2023-04-23T12:17:41;61.50;;;38.20;;
22606;SDS011;11470;20.968;105.834;2023-04-23T12:22:52;248.25;;;112.38;;
22606;SDS011;11470;20.968;105.834;2023-04-23T12:28:01;102.15;;;59.10;;
22606;SDS011;11470;20.968;105.834;2023-04-23T12:33:09;120.45;;;59.15;;
22606;SDS011;11470;20.968;105.834;2023-04-23T12:38:22;132.77;;;68.20;;
22606;SDS011;11470;20.968;105.834;2023-04-23T12:43:31;101.47;;;52.78;;
22606;SDS011;11470;20.968;105.834;2023-04-23T12:48:37;102.10;;;53.42;;
22606;SDS011;11470;20.968;105.834;2023-04-23T12:53:42;89.68;;;51.35;;
22606;SDS011;11470;20.968;105.834;2023-04-23T13:10:42;70.15;;;42.10;;
22606;SDS011;11470;20.968;105.834;2023-04-23T13:15:47;73.97;;;44.33;;
22606;SDS011;11470;20.968;105.834;2023-04-23T13:21:03;71.13;;;41.10;;
22606;SDS011;11470;20.968;105.834;2023-04-23T13:32:05;60.33;;;38.25;;
22606;SDS011;11470;20.968;105.834;2023-04-23T13:37:16;63.35;;;40.50;;
22606;SDS011;11470;20.968;105.834;2023-04-23T13:42:23;64.90;;;39.40;;
22606;SDS011;11470;20.968;105.834;2023-04-23T13:47:55;56.53;;;35.83;;
22606;SDS011;11470;20.968;105.834;2023-04-23T13:53:01;66.95;;;36.05;;
22606;SDS011;11470;20.968;105.834;2023-04-23T13:58:11;53.97;;;35.13;;
22606;SDS011;11470;20.968;105.834;2023-04-23T14:03:20;55.17;;;32.30;;
22606;SDS011;11470;20.968;105.834;2023-04-23T14:08:32;55.10;;;34.75;;
22606;SDS011;11470;20.968;105.834;2023-04-23T14:13:46;58.63;;;34.17;;
22606;SDS011;11470;20.968;105.834;2023-04-23T14:18:55;59.65;;;36.78;;
22606;SDS011;11470;20.968;105.834;2023-04-23T14:24:22;51.95;;;33.72;;
22606;SDS011;11470;20.968;105.834;2023-04-23T14:29:39;48.65;;;30.55;;
22606;SDS011;11470;20.968;105.834;2023-04-23T14:34:50;55.85;;;35.45;;
22606;SDS011;11470;20.968;105.834;2023-04-23T14:40:01;49.80;;;34.20;;
22606;SDS011;11470;20.968;105.834;2023-04-23T14:45:09;55.40;;;34.40;;
22606;SDS011;11470;20.968;105.834;2023-04-23T14:50:16;42.92;;;24.55;;
22606;SDS011;11470;20.968;105.834;2023-04-23T14:55:22;44.65;;;30.55;;
22606;SDS011;11470;20.968;105.834;2023-04-23T15:00:29;50.85;;;34.42;;
22606;SDS011;11470;20.968;105.834;2023-04-23T15:10:45;58.28;;;34.17;;
22606;SDS011;11470;20.968;105.834;2023-04-23T15:21:08;47.80;;;32.55;;
22606;SDS011;11470;20.968;105.834;2023-04-23T15:26:15;47.60;;;33.08;;
22606;SDS011;11470;20.968;105.834;2023-04-23T15:31:21;50.47;;;33.60;;
22606;SDS011;11470;20.968;105.834;2023-04-23T15:36:35;44.85;;;33.80;;
22606;SDS011;11470;20.968;105.834;2023-04-23T15:42:45;48.28;;;30.27;;
22606;SDS011;11470;20.968;105.834;2023-04-23T15:48:02;46.40;;;31.38;;
22606;SDS011;11470;20.968;105.834;2023-04-23T15:53:14;43.83;;;28.42;;
22606;SDS011;11470;20.968;105.834;2023-04-23T16:05:16;44.88;;;30.08;;
22606;SDS011;11470;20.968;105.834;2023-04-23T16:10:22;48.17;;;30.00;;
22606;SDS011;11470;20.968;105.834;2023-04-23T16:15:32;42.40;;;26.65;;
22606;SDS011;11470;20.968;105.834;2023-04-23T16:20:41;50.85;;;30.55;;
22606;SDS011;11470;20.968;105.834;2023-04-23T16:30:52;49.97;;;28.58;;
22606;SDS011;11470;20.968;105.834;2023-04-23T16:41:02;45.58;;;31.10;;
22606;SDS011;11470;20.968;105.834;2023-04-23T16:46:08;47.22;;;32.50;;
22606;SDS011;11470;20.968;105.834;2023-04-23T16:57:31;49.63;;;31.48;;
22606;SDS011;11470;20.968;105.834;2023-04-23T17:02:38;51.17;;;30.80;;
22606;SDS011;11470;20.968;105.834;2023-04-23T17:07:44;47.92;;;32.15;;
22606;SDS011;11470;20.968;105.834;2023-04-23T17:17:57;45.08;;;30.13;;
22606;SDS011;11470;20.968;105.834;2023-04-23T17:28:08;50.92;;;31.80;;
22606;SDS011;11470;20.968;105.834;2023-04-23T17:33:17;45.80;;;27.00;;
22606;SDS011;11470;20.968;105.834;2023-04-23T17:38:24;49.35;;;31.77;;
22606;SDS011;11470;20.968;105.834;2023-04-23T17:43:29;44.30;;;31.65;;
22606;SDS011;11470;20.968;105.834;2023-04-23T17:48:37;39.65;;;26.90;;
22606;SDS011;11470;20.968;105.834;2023-04-23T17:53:43;50.90;;;31.60;;
22606;SDS011;11470;20.968;105.834;2023-04-23T17:58:53;46.75;;;31.38;;
22606;SDS011;11470;20.968;105.834;2023-04-23T18:09:04;46.03;;;30.17;;
22606;SDS011;11470;20.968;105.834;2023-04-23T18:19:15;44.63;;;29.60;;
22606;SDS011;11470;20.968;105.834;2023-04-23T18:24:22;47.35;;;31.98;;
22606;SDS011;11470;20.968;105.834;2023-04-23T18:29:27;49.10;;;31.00;;
22606;SDS011;11470;20.968;105.834;2023-04-23T18:39:43;48.35;;;31.15;;
22606;SDS011;11470;20.968;105.834;2023-04-23T18:44:49;46.38;;;30.98;;
22606;SDS011;11470;20.968;105.834;2023-04-23T18:49:54;54.88;;;33.10;;
22606;SDS011;11470;20.968;105.834;2023-04-23T18:55:04;47.00;;;31.67;;
22606;SDS011;11470;20.968;105.834;2023-04-23T19:00:10;51.40;;;31.77;;
22606;SDS011;11470;20.968;105.834;2023-04-23T19:05:16;54.45;;;32.50;;
22606;SDS011;11470;20.968;105.834;2023-04-23T19:10:22;51.65;;;33.53;;
22606;SDS011;11470;20.968;105.834;2023-04-23T19:15:29;54.45;;;32.83;;
22606;SDS011;11470;20.968;105.834;2023-04-23T19:20:34;56.80;;;32.38;;
22606;SDS011;11470;20.968;105.834;2023-04-23T19:25:40;48.78;;;31.55;;
22606;SDS011;11470;20.968;105.834;2023-04-23T19:35:50;51.55;;;30.80;;
22606;SDS011;11470;20.968;105.834;2023-04-23T19:40:56;55.03;;;34.00;;
22606;SDS011;11470;20.968;105.834;2023-04-23T19:46:01;47.70;;;31.63;;
22606;SDS011;11470;20.968;105.834;2023-04-23T19:56:12;52.13;;;31.75;;
22606;SDS011;11470;20.968;105.834;2023-04-23T20:01:18;55.65;;;33.80;;
22606;SDS011;11470;20.968;105.834;2023-04-23T20:06:24;52.47;;;30.98;;
22606;SDS011;11470;20.968;105.834;2023-04-23T20:11:32;46.08;;;30.52;;
22606;SDS011;11470;20.968;105.834;2023-04-23T20:16:39;44.15;;;30.88;;
22606;SDS011;11470;20.968;105.834;2023-04-23T20:21:45;47.50;;;31.02;;
22606;SDS011;11470;20.968;105.834;2023-04-23T20:26:51;47.53;;;30.42;;
22606;SDS011;11470;20.968;105.834;2023-04-23T20:31:59;49.85;;;29.95;;
22606;SDS011;11470;20.968;105.834;2023-04-23T20:42:59;50.05;;;32.22;;
22606;SDS011;11470;20.968;105.834;2023-04-23T20:55:36;51.80;;;32.67;;
22606;SDS011;11470;20.968;105.834;2023-04-23T21:00:43;55.35;;;32.03;;
22606;SDS011;11470;20.968;105.834;2023-04-23T21:05:49;52.65;;;31.85;;
22606;SDS011;11470;20.968;105.834;2023-04-23T21:10:55;51.05;;;31.42;;
22606;SDS011;11470;20.968;105.834;2023-04-23T21:16:35;50.25;;;30.80;;
22606;SDS011;11470;20.968;105.834;2023-04-23T21:21:43;55.92;;;32.72;;
22606;SDS011;11470;20.968;105.834;2023-04-23T21:26:49;50.22;;;30.65;;
22606;SDS011;11470;20.968;105.834;2023-04-23T21:37:01;55.83;;;33.00;;
22606;SDS011;11470;20.968;105.834;2023-04-23T21:42:12;40.92;;;29.33;;
22606;SDS011;11470;20.968;105.834;2023-04-23T21:47:18;56.55;;;34.47;;
22606;SDS011;11470;20.968;105.834;2023-04-23T21:52:25;54.20;;;31.65;;
22606;SDS011;11470;20.968;105.834;2023-04-23T21:57:32;53.08;;;32.40;;
22606;SDS011;11470;20.968;105.834;2023-04-23T22:02:38;53.83;;;31.17;;
22606;SDS011;11470;20.968;105.834;2023-04-23T22:07:51;44.03;;;28.85;;
22606;SDS011;11470;20.968;105.834;2023-04-23T22:12:58;47.15;;;29.60;;
22606;SDS011;11470;20.968;105.834;2023-04-23T22:18:04;45.38;;;30.30;;
22606;SDS011;11470;20.968;105.834;2023-04-23T22:23:10;47.25;;;31.15;;
22606;SDS011;11470;20.968;105.834;2023-04-23T22:28:16;49.47;;;30.73;;
22606;SDS011;11470;20.968;105.834;2023-04-23T22:33:22;44.40;;;26.95;;
22606;SDS011;11470;20.968;105.834;2023-04-23T22:38:29;52.03;;;32.67;;
22606;SDS011;11470;20.968;105.834;2023-04-23T22:48:40;47.22;;;30.65;;
22606;SDS011;11470;20.968;105.834;2023-04-23T22:53:48;52.47;;;33.05;;
22606;SDS011;11470;20.968;105.834;2023-04-23T22:58:53;53.53;;;32.05;;
22606;SDS011;11470;20.968;105.834;2023-04-23T23:03:59;48.70;;;31.08;;
22606;SDS011;11470;20.968;105.834;2023-04-23T23:14:11;51.60;;;32.73;;
22606;SDS011;11470;20.968;105.834;2023-04-23T23:19:17;54.88;;;32.33;;
22606;SDS011;11470;20.968;105.834;2023-04-23T23:24:22;51.08;;;31.88;;
22606;SDS011;11470;20.968;105.834;2023-04-23T23:29:28;59.58;;;34.80;;
22606;SDS011;11470;20.968;105.834;2023-04-23T23:34:34;49.83;;;32.13;;
22606;SDS011;11470;20.968;105.834;2023-04-23T23:39:40;58.83;;;36.63;;
22606;SDS011;11470;20.968;105.834;2023-04-23T23:44:46;52.58;;;34.90;;
22606;SDS011;11470;20.968;105.834;2023-04-23T23:54:56;68.90;;;41.28;;
